Time;durP1;ratioP1;P1;durP2;ratioP2;P2;SDS_P1;SDS_P2;PMS_P1;PMS_P2;Temp;Humidity;BMP_temperature;BMP_pressure;BME280_temperature;BME280_humidity;BME280_pressure;Samples;Min_cycle;Max_cycle;Signal;HPM_P1;HPM_P2
2024/02/20 00:00:04;;;;;;;4.77;2.20;;;;;;;8.17;100.00;101483.19;5007298;28;20282;-84
2024/02/20 00:02:32;;;;;;;3.07;2.10;;;;;;;8.15;100.00;101481.50;5011816;28;20256;-83
2024/02/20 00:04:59;;;;;;;3.43;2.37;;;;;;;8.18;100.00;101487.56;5005294;28;20233;-82
2024/02/20 00:07:25;;;;;;;5.30;2.43;;;;;;;8.16;100.00;101483.25;5009506;28;20210;-82
2024/02/20 00:09:53;;;;;;;4.57;3.10;;;;;;;8.13;100.00;101492.19;5009364;28;20203;-82
2024/02/20 00:12:20;;;;;;;5.83;3.30;;;;;;;8.12;100.00;101493.09;5008564;28;20226;-82
2024/02/20 00:14:46;;;;;;;6.10;3.30;;;;;;;8.08;100.00;101490.63;5009133;28;20579;-82
2024/02/20 00:17:13;;;;;;;5.30;3.70;;;;;;;8.08;100.00;101495.94;5009211;28;20209;-82
2024/02/20 00:19:39;;;;;;;4.67;3.70;;;;;;;8.03;100.00;101496.13;5006723;28;20211;-82
2024/02/20 00:22:06;;;;;;;3.93;2.93;;;;;;;7.96;100.00;101506.09;5008096;28;20223;-83
2024/02/20 00:24:32;;;;;;;7.20;4.50;;;;;;;7.96;100.00;101510.56;5011374;28;20265;-82
2024/02/20 00:27:00;;;;;;;4.00;2.90;;;;;;;7.99;100.00;101510.44;5007512;28;20218;-82
2024/02/20 00:29:26;;;;;;;3.97;3.17;;;;;;;8.01;100.00;101506.81;5008127;28;20664;-82
2024/02/20 00:31:53;;;;;;;4.10;2.57;;;;;;;7.98;100.00;101506.06;5010494;28;20207;-82
2024/02/20 00:34:19;;;;;;;5.67;3.00;;;;;;;7.97;100.00;101509.63;5011781;28;20225;-83
2024/02/20 00:36:46;;;;;;;4.43;3.40;;;;;;;7.93;100.00;101513.31;5014736;28;20206;-83
2024/02/20 00:39:14;;;;;;;5.27;2.70;;;;;;;7.90;100.00;101518.72;5015955;28;20222;-83
2024/02/20 00:41:40;;;;;;;6.73;2.53;;;;;;;7.89;100.00;101506.41;5013140;28;20223;-84
2024/02/20 00:44:09;;;;;;;3.77;2.67;;;;;;;7.89;100.00;101511.69;5018170;28;20222;-83
2024/02/20 00:46:35;;;;;;;6.13;2.50;;;;;;;7.88;100.00;101515.31;5018486;28;20202;-83
2024/02/20 00:49:02;;;;;;;6.23;2.63;;;;;;;7.87;100.00;101521.53;5020206;28;20917;-83
2024/02/20 00:51:28;;;;;;;5.33;2.50;;;;;;;7.84;100.00;101519.00;5017107;28;20267;-83
2024/02/20 00:53:55;;;;;;;4.97;2.43;;;;;;;7.87;100.00;101518.88;5015925;28;20635;-83
2024/02/20 00:56:23;;;;;;;4.93;2.57;;;;;;;7.89;100.00;101524.97;5011528;28;20285;-83
2024/02/20 00:58:50;;;;;;;4.73;2.60;;;;;;;7.89;100.00;101523.16;5013061;28;20616;-83
2024/02/20 01:01:18;;;;;;;4.73;2.40;;;;;;;7.90;100.00;101526.69;5008397;28;20219;-83
2024/02/20 01:03:45;;;;;;;5.93;2.30;;;;;;;7.88;100.00;101526.75;5015450;28;20249;-82
2024/02/20 01:06:12;;;;;;;6.33;2.60;;;;;;;7.90;100.00;101526.69;5014654;28;20226;-83
2024/02/20 01:08:40;;;;;;;3.43;2.10;;;;;;;7.92;100.00;101532.81;5012899;28;20210;-83
2024/02/20 01:11:07;;;;;;;3.30;2.10;;;;;;;7.90;100.00;101537.31;5006250;28;20214;-82
2024/02/20 01:13:34;;;;;;;5.00;2.70;;;;;;;7.88;100.00;101537.34;5016746;28;20727;-83
2024/02/20 01:16:00;;;;;;;7.27;2.30;;;;;;;7.88;100.00;101536.53;5017501;28;20567;-83
2024/02/20 01:18:28;;;;;;;4.97;2.30;;;;;;;7.88;100.00;101531.22;5017514;28;20669;-84
2024/02/20 01:20:55;;;;;;;8.07;3.07;;;;;;;7.87;100.00;101540.09;5012959;28;20233;-84
2024/02/20 01:23:21;;;;;;;8.07;3.40;;;;;;;7.86;100.00;101527.75;5013817;28;20230;-84
2024/02/20 01:25:48;;;;;;;5.13;2.17;;;;;;;7.84;100.00;101540.22;5012649;28;20207;-84
2024/02/20 01:28:14;;;;;;;6.57;2.57;;;;;;;7.84;100.00;101538.41;5011556;28;20679;-84
2024/02/20 01:30:43;;;;;;;6.20;2.53;;;;;;;7.83;100.00;101539.34;5015482;28;20559;-84
2024/02/20 01:33:10;;;;;;;4.60;2.23;;;;;;;7.80;100.00;101536.78;5011270;28;20372;-84
2024/02/20 01:35:38;;;;;;;4.13;2.50;;;;;;;7.81;100.00;101535.00;5015338;28;20544;-83
2024/02/20 01:38:05;;;;;;;5.87;2.17;;;;;;;7.81;100.00;101535.00;5014929;28;20206;-84
2024/02/20 01:40:32;;;;;;;7.33;2.03;;;;;;;7.82;100.00;101537.59;5012027;28;20234;-83
2024/02/20 01:43:00;;;;;;;6.20;2.33;;;;;;;7.84;100.00;101542.84;5014212;28;20266;-85
2024/02/20 01:45:28;;;;;;;5.43;2.00;;;;;;;7.79;100.00;101543.03;5022817;28;20208;-83
2024/02/20 01:47:55;;;;;;;3.30;1.70;;;;;;;7.77;100.00;101550.16;5016492;28;20199;-83
2024/02/20 01:50:21;;;;;;;5.07;1.80;;;;;;;7.71;100.00;101547.72;5014201;28;20211;-84
2024/02/20 01:52:49;;;;;;;8.70;2.10;;;;;;;7.75;100.00;101545.84;5015651;28;20218;-83
2024/02/20 01:55:19;;;;;;;7.63;2.40;;;;;;;7.72;100.00;101552.13;5009916;28;20203;-83
2024/02/20 01:57:46;;;;;;;7.57;2.80;;;;;;;7.73;100.00;101558.28;5012151;28;20256;-83
2024/02/20 02:00:13;;;;;;;9.63;2.37;;;;;;;7.70;100.00;101545.16;5010439;28;20226;-83
2024/02/20 02:02:39;;;;;;;7.30;2.23;;;;;;;7.69;100.00;101554.03;5012353;28;20232;-84
2024/02/20 02:05:07;;;;;;;6.67;2.57;;;;;;;7.64;100.00;101555.06;5012712;28;20734;-83
2024/02/20 02:07:33;;;;;;;4.97;2.13;;;;;;;7.58;100.00;101557.06;5013575;28;20210;-83
2024/02/20 02:10:01;;;;;;;8.00;2.30;;;;;;;7.56;100.00;101557.13;5011162;28;20215;-83
2024/02/20 02:12:28;;;;;;;10.13;2.70;;;;;;;7.54;100.00;101566.91;5016329;28;20825;-83
2024/02/20 02:14:54;;;;;;;6.10;3.10;;;;;;;7.52;100.00;101565.25;5018491;28;20202;-83
2024/02/20 02:17:21;;;;;;;6.17;3.03;;;;;;;7.51;100.00;101568.84;5018799;28;20652;-84
2024/02/20 02:19:47;;;;;;;7.10;2.60;;;;;;;7.51;100.00;101571.47;5017656;28;20236;-83
2024/02/20 02:22:14;;;;;;;11.40;3.60;;;;;;;7.55;100.00;101575.72;5016940;28;20222;-83
2024/02/20 02:24:41;;;;;;;7.93;2.93;;;;;;;7.53;100.00;101574.91;5019692;28;20238;-84
2024/02/20 02:27:09;;;;;;;7.67;2.43;;;;;;;7.52;100.00;101579.38;5016867;28;20203;-84
2024/02/20 02:29:35;;;;;;;9.50;2.33;;;;;;;7.53;100.00;101583.75;5015701;28;20218;-83
2024/02/20 02:32:02;;;;;;;7.53;2.27;;;;;;;7.50;100.00;101581.22;5009966;28;20207;-83
2024/02/20 02:34:29;;;;;;;9.80;2.50;;;;;;;7.48;100.00;101582.19;5017514;28;20662;-83
2024/02/20 02:36:56;;;;;;;7.50;2.50;;;;;;;7.48;100.00;101576.88;5020535;28;20210;-83
2024/02/20 02:39:23;;;;;;;4.53;1.80;;;;;;;7.48;100.00;101583.06;5016803;28;20198;-83
2024/02/20 02:41:50;;;;;;;6.67;2.27;;;;;;;7.48;100.00;101583.06;5015492;28;20314;-83
2024/02/20 02:44:18;;;;;;;9.10;2.13;;;;;;;7.49;100.00;101592.75;5012736;28;20235;-83
2024/02/20 02:46:44;;;;;;;6.40;1.80;;;;;;;7.47;100.00;101585.75;5015310;28;20214;-83
2024/02/20 02:49:11;;;;;;;6.33;1.87;;;;;;;7.46;100.00;101587.53;5010337;28;20223;-82
2024/02/20 02:51:37;;;;;;;9.97;2.47;;;;;;;7.46;100.00;101589.31;5015476;28;20206;-83
2024/02/20 02:54:04;;;;;;;5.93;2.00;;;;;;;7.46;100.00;101592.84;5020621;28;20222;-82
2024/02/20 02:56:31;;;;;;;8.93;2.53;;;;;;;7.47;100.00;101594.56;5015683;28;20211;-82
2024/02/20 02:58:59;;;;;;;10.97;2.80;;;;;;;7.47;100.00;101591.06;5011509;28;20199;-82
2024/02/20 03:01:27;;;;;;;13.83;2.73;;;;;;;7.49;100.00;101600.69;5017136;28;20223;-83
2024/02/20 03:03:53;;;;;;;13.80;2.37;;;;;;;7.49;100.00;101600.69;5012551;28;20235;-83
2024/02/20 03:06:20;;;;;;;10.30;3.07;;;;;;;7.49;100.00;101599.81;5011256;28;20766;-82
2024/02/20 03:08:47;;;;;;;9.13;2.07;;;;;;;7.48;100.00;101600.75;5017830;28;20233;-83
2024/02/20 03:11:14;;;;;;;11.17;2.93;;;;;;;7.48;100.00;101604.25;5015029;28;20241;-83
2024/02/20 03:13:41;;;;;;;7.67;2.37;;;;;;;7.48;100.00;101606.03;5008299;28;20258;-83
2024/02/20 03:16:08;;;;;;;15.80;2.93;;;;;;;7.48;100.00;101606.91;5002777;28;20203;-83
2024/02/20 03:18:37;;;;;;;14.57;3.53;;;;;;;7.47;100.00;101612.25;5012504;28;20207;-83
2024/02/20 03:21:06;;;;;;;10.83;2.37;;;;;;;7.49;100.00;101610.44;5021268;28;20237;-82
2024/02/20 03:23:33;;;;;;;13.33;2.37;;;;;;;7.45;100.00;101614.97;5010399;28;20225;-82
2024/02/20 03:26:01;;;;;;;10.00;2.77;;;;;;;7.45;100.00;101614.97;5012171;28;20210;-82
2024/02/20 03:28:29;;;;;;;14.77;3.70;;;;;;;7.45;100.00;101614.09;5013957;28;20207;-83
2024/02/20 03:30:56;;;;;;;15.90;3.13;;;;;;;7.42;100.00;101623.03;5017735;28;20214;-83
2024/02/20 03:33:23;;;;;;;15.83;2.80;;;;;;;7.42;100.00;101619.50;5009480;28;20695;-83
2024/02/20 03:35:51;;;;;;;11.57;3.23;;;;;;;7.44;100.00;101623.84;5011341;28;20214;-82
2024/02/20 03:38:20;;;;;;;15.53;3.30;;;;;;;7.41;100.00;101626.59;5012866;28;20218;-83
2024/02/20 03:40:46;;;;;;;12.80;3.40;;;;;;;7.40;100.00;101624.84;5004981;28;20202;-82
2024/02/20 03:43:13;;;;;;;13.20;2.97;;;;;;;7.39;100.00;101632.84;5012402;28;20955;-82
2024/02/20 03:45:39;;;;;;;12.63;3.40;;;;;;;7.39;100.00;101633.72;5014077;28;20210;-82
2024/02/20 03:48:06;;;;;;;13.00;3.40;;;;;;;7.40;100.00;101635.44;5018866;28;20203;-82
2024/02/20 03:50:33;;;;;;;15.60;2.73;;;;;;;7.41;100.00;101642.50;5014594;28;20248;-83
2024/02/20 03:53:01;;;;;;;17.87;3.07;;;;;;;7.42;100.00;101646.88;5016619;28;20635;-82
2024/02/20 03:55:28;;;;;;;12.10;3.43;;;;;;;7.41;100.00;101646.91;5012827;28;20711;-82
2024/02/20 03:57:55;;;;;;;18.60;3.33;;;;;;;7.37;100.00;101648.81;5011562;28;20218;-83
2024/02/20 04:00:24;;;;;;;17.97;3.70;;;;;;;7.36;100.00;101655.03;5016050;28;20195;-83
2024/02/20 04:02:53;;;;;;;22.53;5.70;;;;;;;7.38;100.00;101655.84;5008867;28;20234;-82
2024/02/20 04:05:20;;;;;;;22.70;3.63;;;;;;;7.39;100.00;101644.31;5012371;28;20664;-82
2024/02/20 04:07:46;;;;;;;19.80;3.67;;;;;;;7.36;100.00;101662.09;5006162;28;20207;-82
2024/02/20 04:10:15;;;;;;;18.73;3.70;;;;;;;7.36;100.00;101664.75;5014063;28;20606;-82
2024/02/20 04:12:42;;;;;;;18.33;3.77;;;;;;;7.36;100.00;101670.91;5013075;28;20234;-82
2024/02/20 04:15:11;;;;;;;18.43;3.80;;;;;;;7.33;100.00;101684.31;5013534;28;20211;-82
2024/02/20 04:17:37;;;;;;;17.50;3.10;;;;;;;7.33;100.00;101676.34;5012731;28;20234;-82
2024/02/20 04:20:07;;;;;;;14.97;3.50;;;;;;;7.34;100.00;101686.03;5012615;28;20211;-82
2024/02/20 04:22:34;;;;;;;12.83;3.90;;;;;;;7.35;100.00;101687.75;5009056;28;20226;-82
2024/02/20 04:25:01;;;;;;;18.00;4.27;;;;;;;7.29;100.00;101691.47;5007632;28;20717;-82
2024/02/20 04:27:29;;;;;;;13.27;3.60;;;;;;;7.30;100.00;101692.34;5013991;28;20203;-83
2024/02/20 04:29:56;;;;;;;20.63;4.23;;;;;;;7.29;100.00;101695.91;5009099;28;20277;-82
2024/02/20 04:32:23;;;;;;;20.80;3.43;;;;;;;7.25;100.00;101705.75;5009259;28;20214;-82
2024/02/20 04:34:50;;;;;;;17.60;3.17;;;;;;;7.27;100.00;101700.41;5008954;28;20687;-83
2024/02/20 04:37:17;;;;;;;18.53;4.47;;;;;;;7.24;100.00;101703.13;5010309;28;20203;-80
2024/02/20 04:39:44;;;;;;;17.40;3.90;;;;;;;7.21;100.00;101703.22;5013941;28;20241;-81
2024/02/20 04:42:11;;;;;;;18.93;4.33;;;;;;;7.20;100.00;101720.03;5015497;28;20234;-80
2024/02/20 04:44:39;;;;;;;18.37;3.77;;;;;;;7.19;100.00;101716.53;5010795;28;20737;-80
2024/02/20 04:47:06;;;;;;;17.00;3.57;;;;;;;7.20;100.00;101717.41;5012338;28;20218;-81
2024/02/20 04:49:33;;;;;;;17.63;3.97;;;;;;;7.18;100.00;101721.88;5006427;28;20554;-80
2024/02/20 04:51:59;;;;;;;11.27;3.70;;;;;;;7.18;100.00;101709.50;5009823;28;20198;-81
2024/02/20 04:54:26;;;;;;;15.97;3.77;;;;;;;7.10;100.00;101713.31;5015708;28;20817;-80
2024/02/20 04:56:52;;;;;;;15.40;3.07;;;;;;;7.04;100.00;101722.31;5009959;28;20225;-80
2024/02/20 04:59:19;;;;;;;17.20;3.73;;;;;;;6.97;100.00;101729.63;5026597;28;20202;-80
2024/02/20 05:01:48;;;;;;;14.80;3.03;;;;;;;6.95;100.00;101734.09;5017818;28;20260;-80
2024/02/20 05:04:14;;;;;;;25.07;4.37;;;;;;;6.94;100.00;101721.75;5014427;28;20226;-80
2024/02/20 05:06:41;;;;;;;19.33;4.03;;;;;;;6.91;100.00;101726.28;5017215;28;20206;-80
2024/02/20 05:09:08;;;;;;;18.47;3.63;;;;;;;6.91;100.00;101732.44;5007897;28;20207;-80
2024/02/20 05:11:35;;;;;;;19.20;4.53;;;;;;;6.95;100.00;101734.09;5009638;28;20305;-81
2024/02/20 05:14:03;;;;;;;21.17;4.43;;;;;;;6.97;100.00;101737.56;5010107;28;20231;-80
2024/02/20 05:16:29;;;;;;;17.47;3.73;;;;;;;7.02;100.00;101734.75;5012325;28;20577;-80
2024/02/20 05:18:57;;;;;;;15.10;3.40;;;;;;;7.07;100.00;101737.25;5016236;28;20221;-80
2024/02/20 05:21:24;;;;;;;19.53;3.60;;;;;;;7.07;100.00;101740.78;5013527;28;20218;-80
2024/02/20 05:23:50;;;;;;;20.03;4.60;;;;;;;7.08;100.00;101734.56;5007457;28;20242;-80
2024/02/20 05:26:17;;;;;;;21.10;3.77;;;;;;;7.12;100.00;101737.97;5017625;28;20290;-80
2024/02/20 05:28:43;;;;;;;22.90;3.87;;;;;;;7.13;100.00;101743.25;5014030;28;20647;-80
2024/02/20 05:31:27;;;;;;;23.13;4.10;;;;;;;7.11;100.00;101741.56;5011926;28;20711;-80
2024/02/20 05:33:53;;;;;;;29.50;5.20;;;;;;;7.09;100.00;101738.94;5001034;28;20227;-80
2024/02/20 05:36:21;;;;;;;21.60;4.30;;;;;;;7.08;100.00;101736.34;5012096;28;20647;-80
2024/02/20 05:38:47;;;;;;;19.43;5.97;;;;;;;7.04;100.00;101738.22;5012266;28;20207;-80
2024/02/20 05:41:14;;;;;;;19.50;3.67;;;;;;;7.03;100.00;101743.56;5009823;28;20229;-80
2024/02/20 05:43:40;;;;;;;20.40;5.17;;;;;;;6.99;100.00;101745.44;5007893;28;20238;-81
2024/02/20 05:46:07;;;;;;;28.33;4.77;;;;;;;7.01;100.00;101740.09;5017667;28;20283;-81
2024/02/20 05:48:33;;;;;;;22.83;4.07;;;;;;;7.01;100.00;101743.59;5016977;28;20214;-81
2024/02/20 05:51:00;;;;;;;25.13;4.30;;;;;;;7.00;100.00;101747.16;5016057;28;20230;-81
2024/02/20 05:53:27;;;;;;;21.67;5.07;;;;;;;6.97;100.00;101752.59;5013943;28;20305;-81
2024/02/20 05:55:54;;;;;;;27.73;4.40;;;;;;;6.96;100.00;101748.19;5003529;28;20225;-81
2024/02/20 05:58:21;;;;;;;19.80;4.50;;;;;;;6.96;100.00;101751.72;5015611;28;20229;-81
2024/02/20 06:00:47;;;;;;;22.13;4.97;;;;;;;6.94;100.00;101752.66;5003364;28;20204;-81
2024/02/20 06:03:14;;;;;;;24.03;4.87;;;;;;;6.95;100.00;101765.00;5008178;28;20238;-81
2024/02/20 06:05:40;;;;;;;20.37;5.77;;;;;;;6.96;100.00;101750.84;5014237;28;20214;-80
2024/02/20 06:08:07;;;;;;;20.40;5.03;;;;;;;6.94;100.00;101760.63;5011326;28;20666;-80
2024/02/20 06:10:35;;;;;;;22.67;5.17;;;;;;;6.91;100.00;101756.28;5014383;28;20374;-81
2024/02/20 06:13:01;;;;;;;23.07;4.43;;;;;;;6.90;100.00;101767.78;5006491;28;20219;-81
2024/02/20 06:15:28;;;;;;;23.97;4.90;;;;;;;6.93;100.00;101767.69;5011801;28;20710;-82
2024/02/20 06:17:54;;;;;;;19.07;4.20;;;;;;;6.96;100.00;101777.31;5009163;28;20667;-81
2024/02/20 06:20:21;;;;;;;27.30;5.43;;;;;;;6.96;100.00;101770.25;5004469;28;20656;-82
2024/02/20 06:22:47;;;;;;;21.97;4.93;;;;;;;6.97;100.00;101781.72;5012752;28;20250;-81
2024/02/20 06:25:14;;;;;;;24.93;6.67;;;;;;;6.93;100.00;101780.94;5014857;28;20209;-81
2024/02/20 06:27:51;;;;;;;22.77;5.73;;;;;;;6.92;100.00;101784.50;5012478;28;20206;-81
2024/02/20 06:30:19;;;;;;;19.07;5.80;;;;;;;6.91;100.00;101795.13;5014027;28;20211;-82
2024/02/20 06:32:45;;;;;;;15.57;4.00;;;;;;;6.94;100.00;101795.91;5010555;28;20198;-81
2024/02/20 06:35:12;;;;;;;13.93;4.37;;;;;;;6.95;100.00;101789.72;5008326;28;20579;-81
2024/02/20 06:37:39;;;;;;;27.93;5.23;;;;;;;6.95;100.00;101796.78;5006779;28;20573;-81
2024/02/20 06:40:07;;;;;;;19.70;4.97;;;;;;;7.00;100.00;101793.97;5013979;28;20215;-81
2024/02/20 06:42:34;;;;;;;19.53;5.40;;;;;;;7.00;100.00;101801.91;5009839;28;20657;-82
2024/02/20 06:45:02;;;;;;;26.13;4.60;;;;;;;7.02;100.00;101808.03;5015693;28;20214;-81
2024/02/20 06:47:29;;;;;;;26.40;5.07;;;;;;;7.01;100.00;101801.88;5012687;28;20219;-81
2024/02/20 06:49:55;;;;;;;17.87;4.07;;;;;;;6.99;100.00;101806.34;5011020;28;20207;-81
2024/02/20 06:52:22;;;;;;;25.17;5.40;;;;;;;7.01;100.00;101814.25;5009532;28;20202;-82
2024/02/20 06:54:48;;;;;;;25.53;4.57;;;;;;;6.98;100.00;101809.94;5013602;28;20767;-81
2024/02/20 06:57:14;;;;;;;26.77;5.90;;;;;;;6.94;100.00;101817.09;5018529;28;20213;-82
2024/02/20 06:59:41;;;;;;;27.97;5.07;;;;;;;6.91;100.00;101814.53;5017174;28;20332;-81
2024/02/20 07:02:09;;;;;;;25.83;5.17;;;;;;;6.89;100.00;101821.66;5018497;28;20212;-81
2024/02/20 07:04:37;;;;;;;22.30;5.93;;;;;;;6.88;100.00;101814.63;5016907;28;20235;-81
2024/02/20 07:07:03;;;;;;;17.77;4.80;;;;;;;6.88;100.00;101819.06;5009599;28;20565;-81
2024/02/20 07:09:30;;;;;;;25.07;5.90;;;;;;;6.87;100.00;101819.97;5018692;28;20203;-81
2024/02/20 07:11:56;;;;;;;22.40;4.53;;;;;;;6.90;100.00;101822.53;5010294;28;20212;-81
2024/02/20 07:14:23;;;;;;;19.47;4.60;;;;;;;6.87;100.00;101825.25;5006137;28;20224;-81
2024/02/20 07:16:49;;;;;;;25.10;5.23;;;;;;;6.90;100.00;101825.16;5016741;28;20301;-81
2024/02/20 07:19:21;;;;;;;21.00;5.20;;;;;;;6.89;100.00;101821.66;5018213;28;20207;-81
2024/02/20 07:21:48;;;;;;;22.20;5.10;;;;;;;6.87;100.00;101826.13;5012135;28;20253;-81
2024/02/20 07:24:14;;;;;;;27.73;4.20;;;;;;;6.89;100.00;101815.50;5016656;28;20234;-81
2024/02/20 07:26:41;;;;;;;16.90;4.33;;;;;;;6.90;100.00;101819.88;5008915;28;20207;-81
2024/02/20 07:29:07;;;;;;;25.60;5.10;;;;;;;6.89;100.00;101824.31;5014485;28;20207;-81
2024/02/20 07:31:33;;;;;;;23.03;5.70;;;;;;;6.90;100.00;101820.75;5012702;28;20220;-81
2024/02/20 07:34:00;;;;;;;20.97;4.63;;;;;;;6.91;100.00;101816.31;5018371;28;20219;-81
2024/02/20 07:36:29;;;;;;;21.80;5.33;;;;;;;6.89;100.00;101813.72;5013366;28;20203;-81
2024/02/20 07:38:56;;;;;;;24.53;4.93;;;;;;;6.93;100.00;101820.66;5018244;28;20253;-81
2024/02/20 07:41:23;;;;;;;27.77;5.73;;;;;;;6.93;100.00;101820.66;5014251;28;20237;-81
2024/02/20 07:43:50;;;;;;;28.47;7.57;;;;;;;6.96;100.00;101827.66;5006923;28;20281;-81
2024/02/20 07:46:16;;;;;;;23.13;6.33;;;;;;;6.96;100.00;101828.53;5013356;28;20203;-82
2024/02/20 07:48:45;;;;;;;25.93;6.60;;;;;;;6.97;100.00;101832.03;5016322;28;20217;-81
2024/02/20 07:51:12;;;;;;;24.00;6.50;;;;;;;6.93;100.00;101825.97;5013470;28;20238;-81
2024/02/20 07:53:40;;;;;;;27.90;7.00;;;;;;;6.94;100.00;101829.47;5015069;28;20215;-81
2024/02/20 07:56:08;;;;;;;23.80;6.40;;;;;;;6.94;100.00;101819.75;5008847;28;20207;-81
2024/02/20 07:58:37;;;;;;;18.60;5.87;;;;;;;6.98;100.00;101825.81;5012942;28;20214;-81
2024/02/20 08:01:05;;;;;;;20.20;5.17;;;;;;;7.00;100.00;101825.75;5015407;28;20696;-81
2024/02/20 08:03:31;;;;;;;25.17;5.60;;;;;;;7.02;100.00;101834.53;5011427;28;20754;-81
2024/02/20 08:05:57;;;;;;;33.00;6.23;;;;;;;7.02;100.00;101831.88;5014053;28;20577;-81
2024/02/20 08:08:24;;;;;;;25.33;5.20;;;;;;;6.99;100.00;101835.47;5013423;28;20549;-81
2024/02/20 08:10:52;;;;;;;32.20;5.50;;;;;;;7.02;100.00;101845.13;5012818;28;20576;-81
2024/02/20 08:13:21;;;;;;;18.30;5.30;;;;;;;7.05;100.00;101848.56;5008477;28;20231;-81
2024/02/20 08:15:48;;;;;;;20.37;5.97;;;;;;;7.07;100.00;101843.22;5011179;28;20289;-81
2024/02/20 08:18:14;;;;;;;25.90;5.03;;;;;;;7.08;100.00;101831.69;5008996;28;20211;-82
2024/02/20 08:20:48;;;;;;;18.80;5.03;;;;;;;7.11;100.00;101843.09;5011064;28;20219;-81
2024/02/20 08:23:14;;;;;;;23.50;5.20;;;;;;;7.10;100.00;101844.00;5007262;28;20263;-80
2024/02/20 08:25:41;;;;;;;21.70;6.13;;;;;;;7.12;100.00;101833.34;5013680;28;20207;-81
2024/02/20 08:28:09;;;;;;;19.90;5.47;;;;;;;7.12;100.00;101842.16;5008500;28;20204;-81
2024/02/20 08:30:35;;;;;;;29.30;6.60;;;;;;;7.15;100.00;101841.22;5012298;28;21056;-81
2024/02/20 08:33:02;;;;;;;18.50;5.63;;;;;;;7.18;100.00;101838.44;5008701;28;20235;-81
2024/02/20 08:35:28;;;;;;;23.93;5.30;;;;;;;7.18;100.00;101828.72;5011088;28;20302;-81
2024/02/20 08:37:56;;;;;;;31.87;7.73;;;;;;;7.20;100.00;101839.28;5010491;28;20735;-81
2024/02/20 08:40:23;;;;;;;23.17;5.13;;;;;;;7.21;100.00;101847.19;5009930;28;20203;-81
2024/02/20 08:42:50;;;;;;;29.63;6.37;;;;;;;7.21;100.00;101844.53;5009063;28;20223;-81
2024/02/20 08:45:19;;;;;;;25.10;6.10;;;;;;;7.23;100.00;101852.44;5017769;28;20203;-83
2024/02/20 08:47:45;;;;;;;20.63;6.17;;;;;;;7.23;100.00;101848.00;5010771;28;20245;-81
2024/02/20 08:50:16;;;;;;;29.90;6.07;;;;;;;7.23;100.00;101837.41;5007910;28;20214;-81
2024/02/20 08:52:43;;;;;;;21.70;5.27;;;;;;;7.31;100.00;101848.66;5006552;28;20623;-81
2024/02/20 08:55:09;;;;;;;19.30;4.23;;;;;;;7.34;100.00;101845.03;5012656;28;20226;-81
2024/02/20 08:57:36;;;;;;;17.20;4.63;;;;;;;7.40;100.00;101842.19;5010000;28;20214;-80
2024/02/20 09:00:02;;;;;;;21.87;5.03;;;;;;;7.38;100.00;101838.69;5006684;28;20208;-80
2024/02/20 09:02:30;;;;;;;24.73;4.90;;;;;;;7.39;100.00;101850.19;5007787;28;20573;-80
2024/02/20 09:04:56;;;;;;;24.97;4.63;;;;;;;7.40;100.00;101842.19;5009398;28;20198;-81
2024/02/20 09:07:23;;;;;;;27.07;4.63;;;;;;;7.41;100.00;101846.56;5005241;28;20202;-81
2024/02/20 09:09:49;;;;;;;18.47;4.43;;;;;;;7.41;100.00;101833.31;5006742;28;20204;-80
2024/02/20 09:12:18;;;;;;;26.23;4.70;;;;;;;7.46;100.00;101836.69;5013051;28;20222;-81
2024/02/20 09:14:44;;;;;;;23.17;5.43;;;;;;;7.52;100.00;101831.22;5005400;28;20223;-82
2024/02/20 09:17:11;;;;;;;22.23;4.57;;;;;;;7.62;100.00;101819.38;5013286;28;20238;-80
2024/02/20 09:19:40;;;;;;;21.07;4.23;;;;;;;7.74;100.00;101818.09;5005946;28;20289;-81
2024/02/20 09:22:10;;;;;;;17.00;4.63;;;;;;;7.81;100.00;101819.66;5014639;28;20285;-80
2024/02/20 09:24:36;;;;;;;22.27;4.87;;;;;;;7.93;99.43;101823.66;5010972;28;20314;-80
2024/02/20 09:27:03;;;;;;;27.77;5.10;;;;;;;8.00;99.78;101811.94;5014775;28;20207;-80
2024/02/20 09:29:31;;;;;;;19.77;4.93;;;;;;;8.08;100.00;101817.81;5014267;28;20722;-81
2024/02/20 09:31:58;;;;;;;16.37;4.23;;;;;;;8.19;98.11;101825.44;5011919;28;20210;-80
2024/02/20 09:34:24;;;;;;;18.40;4.83;;;;;;;8.25;97.16;101812.78;5011287;28;20272;-81
2024/02/20 09:36:52;;;;;;;24.33;5.57;;;;;;;8.33;95.34;101813.44;5008356;28;20202;-81
2024/02/20 09:39:21;;;;;;;20.47;4.97;;;;;;;8.40;94.90;101815.88;5009147;28;20203;-80
2024/02/20 09:41:50;;;;;;;21.13;4.10;;;;;;;8.51;92.33;101811.91;5011268;28;20313;-81
2024/02/20 09:44:17;;;;;;;21.53;4.77;;;;;;;8.53;92.38;101807.41;5010791;28;20234;-80
2024/02/20 09:46:48;;;;;;;18.07;4.93;;;;;;;8.62;92.47;101812.38;5010375;28;20206;-80
2024/02/20 09:49:15;;;;;;;17.67;4.20;;;;;;;8.69;91.92;101821.88;5010329;28;20214;-80
2024/02/20 09:51:42;;;;;;;16.07;4.73;;;;;;;8.75;91.55;101826.09;5005225;28;20206;-80
2024/02/20 09:54:10;;;;;;;24.10;5.00;;;;;;;8.81;91.52;101817.00;5011842;28;20226;-80
2024/02/20 09:56:40;;;;;;;22.43;4.00;;;;;;;8.86;89.32;101826.53;5007381;28;20217;-80
2024/02/20 09:59:07;;;;;;;20.27;3.80;;;;;;;8.89;88.26;101823.78;5012174;28;20199;-80
2024/02/20 10:01:33;;;;;;;14.00;4.20;;;;;;;8.95;88.76;101822.69;5009459;28;20214;-80
2024/02/20 10:04:03;;;;;;;19.30;3.70;;;;;;;9.01;88.16;101830.41;5013450;28;20237;-80
2024/02/20 10:06:30;;;;;;;16.43;3.60;;;;;;;9.04;87.33;101817.00;4995963;28;20203;-80
2024/02/20 10:08:57;;;;;;;19.53;4.20;;;;;;;9.07;86.70;101822.22;5008106;28;20204;-80
2024/02/20 10:11:25;;;;;;;16.07;4.90;;;;;;;9.10;86.81;101821.25;5008003;28;20663;-80
2024/02/20 10:13:53;;;;;;;21.87;4.77;;;;;;;9.18;87.51;101827.09;5004864;28;20219;-80
2024/02/20 10:16:19;;;;;;;16.17;3.93;;;;;;;9.23;86.45;101830.47;5009686;28;20202;-80
2024/02/20 10:18:56;;;;;;;15.23;4.00;;;;;;;9.20;84.24;101830.56;5012185;28;20671;-80
2024/02/20 10:21:23;;;;;;;20.60;3.83;;;;;;;9.19;84.73;101829.69;5006457;28;20207;-80
2024/02/20 10:24:00;;;;;;;18.10;4.10;;;;;;;9.18;84.37;101837.72;5002939;28;20607;-80
2024/02/20 10:26:30;;;;;;;16.80;3.80;;;;;;;9.19;84.40;101828.84;5010889;28;20466;-80
2024/02/20 10:28:57;;;;;;;15.73;2.90;;;;;;;9.23;85.66;101841.09;5013329;28;20210;-79
2024/02/20 10:31:25;;;;;;;15.10;3.20;;;;;;;9.26;85.15;101831.22;5013374;28;20223;-80
2024/02/20 10:33:52;;;;;;;13.50;4.00;;;;;;;9.29;84.99;101816.94;5013214;28;20756;-80
2024/02/20 10:36:20;;;;;;;16.93;3.40;;;;;;;9.31;85.71;101817.75;5012131;28;20215;-80
2024/02/20 10:38:49;;;;;;;15.63;3.63;;;;;;;9.34;85.77;101813.16;5015877;28;20199;-81
2024/02/20 10:41:16;;;;;;;15.57;4.53;;;;;;;9.42;83.69;101804.00;5011421;28;20211;-81
2024/02/20 10:43:47;;;;;;;12.10;3.03;;;;;;;9.40;84.02;101796.97;5010503;28;20668;-80
2024/02/20 10:46:14;;;;;;;15.83;4.07;;;;;;;9.43;83.73;101792.44;5014819;28;20199;-80
2024/02/20 10:48:42;;;;;;;11.30;2.70;;;;;;;9.46;84.49;101793.19;5011825;28;20214;-80
2024/02/20 10:51:09;;;;;;;11.90;2.67;;;;;;;9.53;85.02;101802.63;5009758;28;20222;-80
2024/02/20 10:53:37;;;;;;;9.10;2.73;;;;;;;9.55;84.13;101794.59;5019189;28;20241;-80
2024/02/20 10:56:08;;;;;;;15.57;2.53;;;;;;;9.61;83.64;101795.22;5017026;28;20234;-80
2024/02/20 10:58:39;;;;;;;14.77;2.73;;;;;;;9.66;83.84;101797.72;5016873;28;20225;-80
2024/02/20 11:01:09;;;;;;;13.30;3.03;;;;;;;9.67;83.43;101786.13;5015134;28;20229;-80
2024/02/20 11:03:36;;;;;;;14.80;3.53;;;;;;;9.69;83.58;101787.78;5011171;28;20260;-80
2024/02/20 11:06:03;;;;;;;9.90;3.37;;;;;;;9.72;84.44;101790.31;5013742;28;20211;-80
2024/02/20 11:08:31;;;;;;;8.07;2.20;;;;;;;9.79;83.73;101785.63;5014138;28;20206;-80
2024/02/20 11:11:08;;;;;;;11.30;2.63;;;;;;;9.82;83.01;101797.94;5013967;28;20218;-80
2024/02/20 11:13:34;;;;;;;14.60;2.40;;;;;;;9.82;82.54;101787.28;5012326;28;20252;-80
2024/02/20 11:16:10;;;;;;;12.27;3.03;;;;;;;9.85;82.55;101779.19;5035919;22;20230;-79
2024/02/20 11:18:37;;;;;;;18.67;4.07;;;;;;;9.85;82.10;101779.19;5031240;28;20240;-79
2024/02/20 11:21:05;;;;;;;14.80;3.17;;;;;;;9.83;82.35;101794.34;5031900;28;20199;-78